createdAt,value
2019-02-24T00:01:28.676Z,6.88
2019-02-24T00:03:54.984Z,6.87
2019-02-24T00:06:21.282Z,6.91
2019-02-24T00:08:47.592Z,6.91
2019-02-24T00:11:13.894Z,6.93
2019-02-24T00:13:40.223Z,6.91
2019-02-24T00:16:06.527Z,6.92
2019-02-24T00:18:32.839Z,6.91
2019-02-24T00:20:59.149Z,6.92
2019-02-24T00:23:25.453Z,6.91
2019-02-24T00:25:51.760Z,6.91
2019-02-24T00:28:18.077Z,6.90
2019-02-24T00:30:44.379Z,6.87
2019-02-24T00:33:10.701Z,6.87
2019-02-24T00:35:37.056Z,6.85
2019-02-24T00:38:03.388Z,6.81
2019-02-24T00:40:29.670Z,6.74
2019-02-24T00:42:55.974Z,6.63
2019-02-24T00:45:22.288Z,6.58
2019-02-24T00:47:48.598Z,6.54
2019-02-24T00:50:14.898Z,6.54
2019-02-24T00:52:41.207Z,6.55
2019-02-24T00:55:07.510Z,6.54
2019-02-24T00:57:33.821Z,6.53
2019-02-24T01:00:00.255Z,6.51
2019-02-24T01:02:26.439Z,6.51
2019-02-24T01:04:52.746Z,6.52
2019-02-24T01:07:19.050Z,6.52
2019-02-24T01:09:45.363Z,6.52
2019-02-24T01:12:11.698Z,6.53
2019-02-24T01:14:38.050Z,6.52
2019-02-24T01:17:04.355Z,6.51
2019-02-24T01:19:30.663Z,6.50
2019-02-24T01:21:56.967Z,6.50
2019-02-24T01:24:23.274Z,6.46
2019-02-24T01:26:49.573Z,6.43
2019-02-24T01:29:15.881Z,6.35
2019-02-24T01:31:42.188Z,6.25
2019-02-24T01:34:08.494Z,6.25
2019-02-24T01:36:34.798Z,6.30
2019-02-24T01:39:01.106Z,6.31
2019-02-24T01:41:27.521Z,6.31
2019-02-24T01:43:53.786Z,6.29
2019-02-24T01:46:20.093Z,6.28
2019-02-24T01:48:46.400Z,6.29
2019-02-24T01:51:12.705Z,6.30
2019-02-24T01:53:39.016Z,6.32
2019-02-24T01:56:05.362Z,6.30
2019-02-24T01:58:35.105Z,6.31
2019-02-24T02:00:57.931Z,6.29
2019-02-24T02:03:24.258Z,6.26
2019-02-24T02:05:50.567Z,6.25
2019-02-24T02:08:16.868Z,6.25
2019-02-24T02:10:43.171Z,6.25
2019-02-24T02:13:09.530Z,6.14
2019-02-24T02:15:35.806Z,6.07
2019-02-24T02:18:02.103Z,6.00
2019-02-24T02:20:28.414Z,6.01
2019-02-24T02:22:54.723Z,6.04
2019-02-24T02:25:21.033Z,6.04
2019-02-24T02:27:47.335Z,6.05
2019-02-24T02:30:13.644Z,6.06
2019-02-24T02:32:39.978Z,6.06
2019-02-24T02:35:06.263Z,6.05
2019-02-24T02:37:32.580Z,6.07
2019-02-24T02:39:58.888Z,6.09
2019-02-24T02:42:25.199Z,6.10
2019-02-24T02:44:51.498Z,6.10
2019-02-24T02:47:17.826Z,6.09
2019-02-24T02:49:44.132Z,6.09
2019-02-24T02:52:10.992Z,6.08
2019-02-24T02:54:37.317Z,6.05
2019-02-24T02:57:03.559Z,6.01
2019-02-24T02:59:29.862Z,5.90
2019-02-24T03:01:56.167Z,5.85
2019-02-24T03:04:22.490Z,5.79
2019-02-24T03:06:48.795Z,5.80
2019-02-24T03:09:15.104Z,5.83
2019-02-24T03:11:41.409Z,5.84
2019-02-24T03:14:07.736Z,5.85
2019-02-24T03:16:34.045Z,5.86
2019-02-24T03:19:00.350Z,5.85
2019-02-24T03:21:26.659Z,5.85
2019-02-24T03:23:52.959Z,5.85
2019-02-24T03:26:19.357Z,5.88
2019-02-24T03:28:45.658Z,5.88
2019-02-24T03:31:11.989Z,5.88
2019-02-24T03:33:38.293Z,5.84
2019-02-24T03:36:04.590Z,5.86
2019-02-24T03:38:30.948Z,5.85
2019-02-24T03:40:57.252Z,5.84
2019-02-24T03:43:23.597Z,5.80
2019-02-24T03:45:49.873Z,5.71
2019-02-24T03:48:16.199Z,5.64
2019-02-24T03:50:42.500Z,5.57
2019-02-24T03:53:08.806Z,5.57
2019-02-24T03:55:35.119Z,5.59
2019-02-24T03:58:01.193Z,5.60
2019-02-24T04:00:27.503Z,5.58
2019-02-24T04:02:53.812Z,5.61
2019-02-24T04:05:20.120Z,5.61
2019-02-24T04:07:46.428Z,5.60
2019-02-24T04:10:12.814Z,5.61
2019-02-24T04:12:39.114Z,5.62
2019-02-24T04:15:05.419Z,5.61
2019-02-24T04:17:31.724Z,5.61
2019-02-24T04:19:58.123Z,5.62
2019-02-24T04:22:24.430Z,5.62
2019-02-24T04:24:50.755Z,5.61
2019-02-24T04:27:17.068Z,5.61
2019-02-24T04:29:43.368Z,5.49
2019-02-24T04:32:09.676Z,5.46
2019-02-24T04:34:35.985Z,5.38
2019-02-24T04:37:02.291Z,5.34
2019-02-24T04:39:28.596Z,5.37
2019-02-24T04:41:54.904Z,5.39
2019-02-24T04:44:21.207Z,5.39
2019-02-24T04:46:47.516Z,5.30
2019-02-24T04:49:13.824Z,5.40
2019-02-24T04:51:40.130Z,5.37
2019-02-24T04:54:06.430Z,5.40
2019-02-24T04:56:32.736Z,5.43
2019-02-24T04:58:59.038Z,5.44
2019-02-24T05:01:25.350Z,5.45
2019-02-24T05:03:51.653Z,5.38
2019-02-24T05:06:17.956Z,5.45
2019-02-24T05:08:44.279Z,5.44
2019-02-24T05:11:10.588Z,5.43
2019-02-24T05:13:36.895Z,5.43
2019-02-24T05:16:03.208Z,5.34
2019-02-24T05:18:29.499Z,5.25
2019-02-24T05:20:55.802Z,5.15
2019-02-24T05:23:22.111Z,5.10
2019-02-24T05:25:48.444Z,5.10
2019-02-24T05:28:14.756Z,5.10
2019-02-24T05:30:41.060Z,5.08
2019-02-24T05:33:07.368Z,5.09
2019-02-24T05:35:33.672Z,5.09
2019-02-24T05:37:59.983Z,5.06
2019-02-24T05:40:26.295Z,5.11
2019-02-24T05:42:52.598Z,5.23
2019-02-24T05:45:18.906Z,5.39
2019-02-24T05:47:45.217Z,5.55
2019-02-24T05:50:11.523Z,5.72
2019-02-24T05:52:37.834Z,5.90
2019-02-24T05:55:04.153Z,6.10
2019-02-24T05:57:30.463Z,6.27
2019-02-24T05:59:56.769Z,6.36
2019-02-24T06:02:23.087Z,6.32
2019-02-24T06:04:49.394Z,6.32
2019-02-24T06:07:15.731Z,6.38
2019-02-24T06:09:42.036Z,6.60
2019-02-24T06:12:08.342Z,6.91
2019-02-24T06:14:34.705Z,7.21
2019-02-24T06:17:01.009Z,7.49
2019-02-24T06:19:27.354Z,7.73
2019-02-24T06:21:53.676Z,7.96
2019-02-24T06:24:19.994Z,8.15
2019-02-24T06:26:46.297Z,8.35
2019-02-24T06:29:12.609Z,8.55
2019-02-24T06:31:38.911Z,8.77
2019-02-24T06:34:05.220Z,8.98
2019-02-24T06:36:31.547Z,9.20
2019-02-24T06:38:57.856Z,9.42
2019-02-24T06:41:24.161Z,9.66
2019-02-24T06:43:50.469Z,9.89
2019-02-24T06:46:16.788Z,10.09
2019-02-24T06:48:43.090Z,10.15
2019-02-24T06:51:09.424Z,10.21
2019-02-24T06:53:35.715Z,10.38
2019-02-24T06:56:02.032Z,10.68
2019-02-24T06:58:28.348Z,11.03
2019-02-24T07:00:54.804Z,11.34
2019-02-24T07:03:21.114Z,11.64
2019-02-24T07:05:47.428Z,11.89
2019-02-24T07:08:13.729Z,12.14
2019-02-24T07:10:40.047Z,12.38
2019-02-24T07:13:06.358Z,12.61
2019-02-24T07:15:32.691Z,12.84
2019-02-24T07:17:59.002Z,13.03
2019-02-24T07:20:25.308Z,13.26
2019-02-24T07:22:51.624Z,13.45
2019-02-24T07:25:17.937Z,13.66
2019-02-24T07:27:44.252Z,13.86
2019-02-24T07:30:10.582Z,14.08
2019-02-24T07:32:36.925Z,14.30
2019-02-24T07:35:03.259Z,14.54
2019-02-24T07:37:29.570Z,15.16
2019-02-24T07:39:55.882Z,15.76
2019-02-24T07:42:22.194Z,16.19
2019-02-24T07:44:48.500Z,16.53
2019-02-24T07:47:14.810Z,16.58
2019-02-24T07:49:41.120Z,16.54
2019-02-24T07:52:07.430Z,16.55
2019-02-24T07:54:33.740Z,16.61
2019-02-24T07:57:00.054Z,16.71
2019-02-24T07:59:26.367Z,16.81
2019-02-24T08:01:52.679Z,16.92
2019-02-24T08:04:18.994Z,17.02
2019-02-24T08:06:45.304Z,17.16
2019-02-24T08:09:11.618Z,17.26
2019-02-24T08:11:37.925Z,17.39
2019-02-24T08:14:04.240Z,17.53
2019-02-24T08:16:30.600Z,17.68
2019-02-24T08:18:56.927Z,17.87
2019-02-24T08:21:23.240Z,18.00
2019-02-24T08:23:49.557Z,18.15
2019-02-24T08:26:15.891Z,18.30
2019-02-24T08:28:42.203Z,18.43
2019-02-24T08:31:08.521Z,18.58
2019-02-24T08:33:34.839Z,18.72
2019-02-24T08:36:01.152Z,18.86
2019-02-24T08:38:27.463Z,19.01
2019-02-24T08:40:55.083Z,19.18
2019-02-24T08:43:20.086Z,19.34
2019-02-24T08:45:46.398Z,19.52
2019-02-24T08:48:12.705Z,19.67
2019-02-24T08:50:39.024Z,19.82
2019-02-24T08:53:05.328Z,19.99
2019-02-24T08:55:31.643Z,20.13
2019-02-24T08:57:57.950Z,20.29
2019-02-24T09:00:24.261Z,20.46
2019-02-24T09:02:52.440Z,20.64
2019-02-24T09:05:16.875Z,20.79
2019-02-24T09:07:43.204Z,20.94
2019-02-24T09:10:09.518Z,21.10
2019-02-24T09:12:35.889Z,21.23
2019-02-24T09:15:02.205Z,21.39
2019-02-24T09:17:28.515Z,21.51
2019-02-24T09:19:54.826Z,21.65
2019-02-24T09:22:21.137Z,21.81
2019-02-24T09:24:47.459Z,21.93
2019-02-24T09:27:13.769Z,22.09
2019-02-24T09:29:40.076Z,22.23
2019-02-24T09:32:06.388Z,22.39
2019-02-24T09:34:32.692Z,22.56
2019-02-24T09:36:59.017Z,22.73
2019-02-24T09:39:25.320Z,22.87
2019-02-24T09:41:51.719Z,22.99
2019-02-24T09:44:18.042Z,23.13
2019-02-24T09:46:44.357Z,23.23
2019-02-24T09:49:10.666Z,23.35
2019-02-24T09:51:36.975Z,23.48
2019-02-24T09:54:03.299Z,23.57
2019-02-24T09:56:29.611Z,23.67
2019-02-24T09:58:55.917Z,23.76
2019-02-24T10:01:22.233Z,23.90
2019-02-24T10:03:48.536Z,24.03
2019-02-24T10:06:14.849Z,24.13
2019-02-24T10:08:41.153Z,24.21
2019-02-24T10:11:07.471Z,24.33
2019-02-24T10:13:33.812Z,24.42
2019-02-24T10:16:00.128Z,24.49
2019-02-24T10:18:26.433Z,24.59
2019-02-24T10:20:52.753Z,24.64
2019-02-24T10:23:19.048Z,24.72
2019-02-24T10:25:45.355Z,24.79
2019-02-24T10:28:11.667Z,23.89
2019-02-24T10:30:37.983Z,21.05
2019-02-24T10:33:04.296Z,19.66
2019-02-24T10:35:30.606Z,18.24
2019-02-24T10:37:56.923Z,17.65
2019-02-24T10:40:23.229Z,18.42
2019-02-24T10:42:49.541Z,19.74
2019-02-24T10:45:15.847Z,20.78
2019-02-24T10:47:42.174Z,21.52
2019-02-24T10:50:08.473Z,22.14
2019-02-24T10:52:34.782Z,22.73
2019-02-24T10:55:01.093Z,23.17
2019-02-24T10:57:27.399Z,23.53
2019-02-24T10:59:53.727Z,23.80
2019-02-24T11:02:20.062Z,24.01
2019-02-24T11:04:46.368Z,24.17
2019-02-24T11:07:12.676Z,24.29
2019-02-24T11:09:39.003Z,24.43
2019-02-24T11:12:05.313Z,24.54
2019-02-24T11:14:31.621Z,24.67
2019-02-24T11:16:57.926Z,24.80
2019-02-24T11:19:24.241Z,24.86
2019-02-24T11:21:50.541Z,24.14
2019-02-24T11:24:16.895Z,23.87
2019-02-24T11:26:43.212Z,23.26
2019-02-24T11:29:09.514Z,20.90
2019-02-24T11:31:38.420Z,20.85
2019-02-24T11:34:02.138Z,21.36
2019-02-24T11:36:28.586Z,21.79
2019-02-24T11:38:54.864Z,22.14
2019-02-24T11:41:21.257Z,22.36
2019-02-24T11:43:47.556Z,22.45
2019-02-24T11:46:14.049Z,22.41
2019-02-24T11:48:40.461Z,22.31
2019-02-24T11:51:06.802Z,22.14
2019-02-24T11:53:33.293Z,21.96
2019-02-24T11:55:59.598Z,21.80
2019-02-24T11:58:26.109Z,21.63
2019-02-24T12:00:52.512Z,21.49
2019-02-24T12:03:18.847Z,21.41
2019-02-24T12:05:45.184Z,21.34
2019-02-24T12:08:11.896Z,21.28
2019-02-24T12:10:39.012Z,21.22
2019-02-24T12:13:09.097Z,21.15
2019-02-24T12:15:35.372Z,21.12
2019-02-24T12:18:01.683Z,21.06
2019-02-24T12:20:27.999Z,20.95
2019-02-24T12:22:54.404Z,20.87
2019-02-24T12:25:20.727Z,20.79
2019-02-24T12:27:47.029Z,20.69
2019-02-24T12:30:13.336Z,20.59
2019-02-24T12:32:39.677Z,20.50
2019-02-24T12:35:05.979Z,20.40
2019-02-24T12:37:32.405Z,20.33
2019-02-24T12:39:58.647Z,20.23
2019-02-24T12:42:24.955Z,20.14
2019-02-24T12:44:51.259Z,20.01
2019-02-24T12:47:17.603Z,19.96
2019-02-24T12:49:43.910Z,19.88
2019-02-24T12:52:10.212Z,19.80
2019-02-24T12:54:36.524Z,19.70
2019-02-24T12:57:02.833Z,19.62
2019-02-24T12:59:29.146Z,19.56
2019-02-24T13:01:55.451Z,19.45
2019-02-24T13:04:21.766Z,19.40
2019-02-24T13:06:48.077Z,19.30
2019-02-24T13:09:14.389Z,19.22
2019-02-24T13:11:40.716Z,19.14
2019-02-24T13:14:07.029Z,19.06
2019-02-24T13:16:33.338Z,19.00
2019-02-24T13:18:59.665Z,18.91
2019-02-24T13:21:25.964Z,18.85
2019-02-24T13:23:52.272Z,18.77
2019-02-24T13:26:18.582Z,18.72
2019-02-24T13:28:50.461Z,18.67
2019-02-24T13:31:11.242Z,18.61
2019-02-24T13:33:37.548Z,18.55
2019-02-24T13:36:03.866Z,18.46
2019-02-24T13:38:30.173Z,18.40
2019-02-24T13:40:56.800Z,18.34
2019-02-24T13:43:23.117Z,18.31
2019-02-24T13:45:49.412Z,18.28
2019-02-24T13:48:15.717Z,18.25
2019-02-24T13:50:42.023Z,18.15
2019-02-24T13:53:08.353Z,18.02
2019-02-24T13:55:34.659Z,17.98
2019-02-24T13:58:00.973Z,17.95
2019-02-24T14:00:27.281Z,17.92
2019-02-24T14:05:39.965Z,17.79
2019-02-24T14:08:06.296Z,17.71
2019-02-24T14:10:32.605Z,17.65
2019-02-24T14:12:59.035Z,17.57
2019-02-24T14:15:25.227Z,17.38
2019-02-24T14:17:51.540Z,17.22
2019-02-24T14:20:20.058Z,17.21
2019-02-24T14:22:46.370Z,17.21
2019-02-24T14:25:12.694Z,17.22
2019-02-24T14:27:39.007Z,17.18
2019-02-24T14:30:05.313Z,17.12
2019-02-24T14:32:33.133Z,17.05
2019-02-24T14:34:57.946Z,16.99
2019-02-24T14:37:24.262Z,16.93
2019-02-24T14:39:50.588Z,16.88
2019-02-24T14:42:16.907Z,16.79
2019-02-24T14:44:43.218Z,16.75
2019-02-24T14:47:09.526Z,16.71
2019-02-24T14:49:35.832Z,16.67
2019-02-24T14:52:02.147Z,16.62
2019-02-24T14:54:28.457Z,16.54
2019-02-24T14:56:54.769Z,16.48
2019-02-24T14:59:21.075Z,16.41
2019-02-24T15:01:47.387Z,16.36
2019-02-24T15:04:13.700Z,16.30
2019-02-24T15:06:40.015Z,16.23
2019-02-24T15:09:06.329Z,16.16
2019-02-24T15:11:32.642Z,16.11
2019-02-24T15:13:58.953Z,16.07
2019-02-24T15:16:25.263Z,16.01
2019-02-24T15:18:51.575Z,15.95
2019-02-24T15:21:17.930Z,15.93
2019-02-24T15:23:44.539Z,15.86
2019-02-24T15:26:10.840Z,15.82
2019-02-24T15:28:37.151Z,15.75
2019-02-24T15:31:03.455Z,15.72
2019-02-24T15:33:29.762Z,15.68
2019-02-24T15:35:56.069Z,15.61
2019-02-24T15:38:22.393Z,15.53
2019-02-24T15:40:48.699Z,15.50
2019-02-24T15:43:15.022Z,15.41
2019-02-24T15:45:41.332Z,15.33
2019-02-24T15:48:07.641Z,15.27
2019-02-24T15:50:33.948Z,15.21
2019-02-24T15:53:00.259Z,15.16
2019-02-24T15:55:29.029Z,15.08
2019-02-24T15:57:55.425Z,15.03
2019-02-24T16:00:21.800Z,14.96
2019-02-24T16:02:48.135Z,14.91
2019-02-24T16:05:14.455Z,14.86
2019-02-24T16:07:40.781Z,14.74
2019-02-24T16:10:07.112Z,14.69
2019-02-24T16:12:33.425Z,14.56
2019-02-24T16:14:59.766Z,14.54
2019-02-24T16:17:26.205Z,14.47
2019-02-24T16:19:52.535Z,14.44
2019-02-24T16:22:18.836Z,14.37
2019-02-24T16:24:45.143Z,14.27
2019-02-24T16:27:11.447Z,14.12
2019-02-24T16:29:37.759Z,14.09
2019-02-24T16:32:04.088Z,14.07
2019-02-24T16:34:30.402Z,13.96
2019-02-24T16:36:56.719Z,13.98
2019-02-24T16:39:23.023Z,13.92
2019-02-24T16:41:49.343Z,13.85
2019-02-24T16:44:15.663Z,13.78
2019-02-24T16:46:41.976Z,13.72
2019-02-24T16:49:08.284Z,13.70
2019-02-24T16:51:34.599Z,13.62
2019-02-24T16:54:00.905Z,13.54
2019-02-24T16:56:27.237Z,13.51
2019-02-24T16:58:53.540Z,13.45
2019-02-24T17:01:19.858Z,13.41
2019-02-24T17:03:46.170Z,13.36
2019-02-24T17:06:12.479Z,13.33
2019-02-24T17:08:38.784Z,13.28
2019-02-24T17:11:07.644Z,13.20
2019-02-24T17:13:31.399Z,13.12
2019-02-24T17:15:57.705Z,13.04
2019-02-24T17:18:24.016Z,13.02
2019-02-24T17:20:50.339Z,12.97
2019-02-24T17:23:16.644Z,12.94
2019-02-24T17:25:42.952Z,12.90
2019-02-24T17:28:09.262Z,12.87
2019-02-24T17:30:35.571Z,12.82
2019-02-24T17:33:01.876Z,12.78
2019-02-24T17:35:28.185Z,12.74
2019-02-24T17:37:54.505Z,12.74
2019-02-24T17:40:20.817Z,12.71
2019-02-24T17:42:47.121Z,12.68
2019-02-24T17:45:13.431Z,12.64
2019-02-24T17:47:39.743Z,12.68
2019-02-24T17:50:06.052Z,12.89
2019-02-24T17:52:32.707Z,12.86
2019-02-24T17:54:59.024Z,12.78
2019-02-24T17:57:28.014Z,12.70
2019-02-24T17:59:54.368Z,12.66
2019-02-24T18:02:22.656Z,12.62
2019-02-24T18:04:48.983Z,12.54
2019-02-24T18:07:15.295Z,12.41
2019-02-24T18:09:41.716Z,12.22
2019-02-24T18:12:08.069Z,12.06
2019-02-24T18:14:34.378Z,11.95
2019-02-24T18:17:00.744Z,11.91
2019-02-24T18:19:27.052Z,11.88
2019-02-24T18:21:53.357Z,11.81
2019-02-24T18:24:19.681Z,11.77
2019-02-24T18:26:46.012Z,11.70
2019-02-24T18:29:12.327Z,11.68
2019-02-24T18:31:38.642Z,11.62
2019-02-24T18:34:04.949Z,11.85
2019-02-24T18:36:31.265Z,11.97
2019-02-24T18:38:57.569Z,11.91
2019-02-24T18:41:23.901Z,11.83
2019-02-24T18:43:50.209Z,11.75
2019-02-24T18:46:16.518Z,11.73
2019-02-24T18:48:42.830Z,11.69
2019-02-24T18:51:09.166Z,11.61
2019-02-24T18:53:35.491Z,11.52
2019-02-24T18:56:01.806Z,11.43
2019-02-24T18:58:28.113Z,11.41
2019-02-24T19:00:54.425Z,11.38
2019-02-24T19:03:20.741Z,11.36
2019-02-24T19:05:49.253Z,11.32
2019-02-24T19:08:15.578Z,11.29
2019-02-24T19:10:41.885Z,11.25
2019-02-24T19:13:08.193Z,11.24
2019-02-24T19:15:34.510Z,11.21
2019-02-24T19:18:00.845Z,11.17
2019-02-24T19:20:28.185Z,11.15
2019-02-24T19:22:54.497Z,11.12
2019-02-24T19:25:23.123Z,11.09
2019-02-24T19:27:49.445Z,11.06
2019-02-24T19:30:15.769Z,11.04
2019-02-24T19:32:42.073Z,11.05
2019-02-24T19:35:08.394Z,11.03
2019-02-24T19:37:34.704Z,10.97
2019-02-24T19:40:01.058Z,10.85
2019-02-24T19:42:27.382Z,10.82
2019-02-24T19:44:56.095Z,10.79
2019-02-24T19:47:22.410Z,10.76
2019-02-24T19:49:48.749Z,10.76
2019-02-24T19:52:15.094Z,10.76
2019-02-24T19:54:41.406Z,10.73
2019-02-24T19:57:07.724Z,10.68
2019-02-24T19:59:34.034Z,10.65
2019-02-24T20:02:00.367Z,10.63
2019-02-24T20:04:26.687Z,10.60
2019-02-24T20:06:52.993Z,10.62
2019-02-24T20:09:22.085Z,10.59
2019-02-24T20:11:48.395Z,10.56
2019-02-24T20:14:14.710Z,10.55
2019-02-24T20:16:41.025Z,10.52
2019-02-24T20:19:07.339Z,10.54
2019-02-24T20:21:33.654Z,10.53
2019-02-24T20:23:59.975Z,10.46
2019-02-24T20:26:26.303Z,10.35
2019-02-24T20:28:52.601Z,10.26
2019-02-24T20:31:18.919Z,10.25
2019-02-24T20:33:47.721Z,10.25
2019-02-24T20:36:14.034Z,10.21
2019-02-24T20:38:42.755Z,10.17
2019-02-24T20:41:09.072Z,10.12
2019-02-24T20:43:35.383Z,10.09
2019-02-24T20:46:01.868Z,10.31
2019-02-24T20:48:28.214Z,10.56
2019-02-24T20:50:54.541Z,10.52
2019-02-24T20:53:20.895Z,10.39
2019-02-24T20:55:47.275Z,10.31
2019-02-24T20:58:13.549Z,10.27
2019-02-24T21:00:39.977Z,10.24
2019-02-24T21:03:06.298Z,10.20
2019-02-24T21:05:32.627Z,10.17
2019-02-24T21:07:58.934Z,10.10
2019-02-24T21:10:25.242Z,9.99
2019-02-24T21:12:51.602Z,9.88
2019-02-24T21:15:17.925Z,9.86
2019-02-24T21:17:44.246Z,9.83
2019-02-24T21:20:10.551Z,9.80
2019-02-24T21:22:36.861Z,9.77
2019-02-24T21:25:03.179Z,9.72
2019-02-24T21:27:29.495Z,9.69
2019-02-24T21:29:55.838Z,9.67
2019-02-24T21:32:22.143Z,9.65
2019-02-24T21:34:48.462Z,9.56
2019-02-24T21:37:14.812Z,9.58
2019-02-24T21:39:41.141Z,9.56
2019-02-24T21:42:07.452Z,9.54
2019-02-24T21:44:33.768Z,9.54
2019-02-24T21:47:00.077Z,9.55
2019-02-24T21:49:26.415Z,9.58
2019-02-24T21:51:53.403Z,9.54
2019-02-24T21:54:19.712Z,9.49
2019-02-24T21:56:46.014Z,9.37
2019-02-24T21:59:12.326Z,9.27
2019-02-24T22:01:40.610Z,9.26
2019-02-24T22:04:04.945Z,9.24
2019-02-24T22:06:31.268Z,9.22
2019-02-24T22:08:57.584Z,9.21
2019-02-24T22:11:23.935Z,9.19
2019-02-24T22:13:50.243Z,9.17
2019-02-24T22:16:16.552Z,9.15
2019-02-24T22:18:42.859Z,9.11
2019-02-24T22:21:09.168Z,9.09
2019-02-24T22:23:35.475Z,9.08
2019-02-24T22:26:01.779Z,9.08
2019-02-24T22:28:28.094Z,9.09
2019-02-24T22:30:54.401Z,9.10
2019-02-24T22:33:20.711Z,9.08
2019-02-24T22:35:47.016Z,9.08
2019-02-24T22:38:13.328Z,9.04
2019-02-24T22:40:39.640Z,8.98
2019-02-24T22:43:05.948Z,8.89
2019-02-24T22:45:32.262Z,8.80
2019-02-24T22:47:58.573Z,8.78
2019-02-24T22:50:24.894Z,8.77
2019-02-24T22:52:51.196Z,8.73
2019-02-24T22:55:17.511Z,8.72
2019-02-24T22:57:43.818Z,8.70
2019-02-24T23:00:10.131Z,8.66
2019-02-24T23:02:36.435Z,8.62
2019-02-24T23:05:02.746Z,8.59
2019-02-24T23:07:29.052Z,8.57
2019-02-24T23:09:55.357Z,8.54
2019-02-24T23:12:21.669Z,8.52
2019-02-24T23:14:47.974Z,8.50
2019-02-24T23:17:14.283Z,8.49
2019-02-24T23:19:40.602Z,8.49
2019-02-24T23:22:06.920Z,8.48
2019-02-24T23:24:33.229Z,8.44
2019-02-24T23:26:59.597Z,8.38
2019-02-24T23:29:25.900Z,8.28
2019-02-24T23:31:52.217Z,8.25
2019-02-24T23:34:18.529Z,8.25
2019-02-24T23:36:44.836Z,8.27
2019-02-24T23:39:11.149Z,8.27
2019-02-24T23:41:37.459Z,8.30
2019-02-24T23:44:03.766Z,8.32
2019-02-24T23:46:30.070Z,8.32
2019-02-24T23:48:56.373Z,8.32
2019-02-24T23:51:22.680Z,8.34
2019-02-24T23:53:48.995Z,8.34
2019-02-24T23:56:15.302Z,8.32
2019-02-24T23:58:41.612Z,8.31
